sensor_id;sensor_type;location;lat;lon;timestamp;P1;durP1;ratioP1;P2;durP2;ratioP2
9986;SDS011;5033;46.310;11.214;2023-04-01T00:00:45;6.97;;;6.35;;
9986;SDS011;5033;46.310;11.214;2023-04-01T00:03:12;6.60;;;6.10;;
9986;SDS011;5033;46.310;11.214;2023-04-01T00:05:39;7.00;;;6.30;;
9986;SDS011;5033;46.310;11.214;2023-04-01T00:08:06;6.15;;;5.65;;
9986;SDS011;5033;46.310;11.214;2023-04-01T00:10:34;6.28;;;5.35;;
9986;SDS011;5033;46.310;11.214;2023-04-01T00:13:02;5.60;;;5.10;;
9986;SDS011;5033;46.310;11.214;2023-04-01T00:15:29;5.20;;;4.80;;
9986;SDS011;5033;46.310;11.214;2023-04-01T00:17:56;6.60;;;5.90;;
9986;SDS011;5033;46.310;11.214;2023-04-01T00:20:24;7.03;;;6.32;;
9986;SDS011;5033;46.310;11.214;2023-04-01T00:22:50;5.65;;;5.15;;
9986;SDS011;5033;46.310;11.214;2023-04-01T00:25:18;5.85;;;5.35;;
9986;SDS011;5033;46.310;11.214;2023-04-01T00:27:46;5.68;;;5.28;;
9986;SDS011;5033;46.310;11.214;2023-04-01T00:30:14;6.82;;;6.13;;
9986;SDS011;5033;46.310;11.214;2023-04-01T00:32:42;5.57;;;5.18;;
9986;SDS011;5033;46.310;11.214;2023-04-01T00:35:09;5.47;;;5.07;;
9986;SDS011;5033;46.310;11.214;2023-04-01T00:37:37;6.03;;;5.63;;
9986;SDS011;5033;46.310;11.214;2023-04-01T00:40:06;5.80;;;5.30;;
9986;SDS011;5033;46.310;11.214;2023-04-01T00:42:34;5.75;;;5.35;;
9986;SDS011;5033;46.310;11.214;2023-04-01T00:47:56;4.85;;;4.45;;
9986;SDS011;5033;46.310;11.214;2023-04-01T00:50:25;5.45;;;5.05;;
9986;SDS011;5033;46.310;11.214;2023-04-01T00:52:54;4.53;;;4.13;;
9986;SDS011;5033;46.310;11.214;2023-04-01T00:55:21;4.68;;;4.35;;
9986;SDS011;5033;46.310;11.214;2023-04-01T00:57:50;4.53;;;4.13;;
9986;SDS011;5033;46.310;11.214;2023-04-01T01:00:19;5.82;;;5.32;;
9986;SDS011;5033;46.310;11.214;2023-04-01T01:02:48;4.38;;;4.07;;
9986;SDS011;5033;46.310;11.214;2023-04-01T01:05:17;4.93;;;4.53;;
9986;SDS011;5033;46.310;11.214;2023-04-01T01:07:51;4.50;;;4.20;;
9986;SDS011;5033;46.310;11.214;2023-04-01T01:10:29;4.95;;;4.55;;
9986;SDS011;5033;46.310;11.214;2023-04-01T01:12:59;4.60;;;4.30;;
9986;SDS011;5033;46.310;11.214;2023-04-01T01:15:36;5.22;;;4.90;;
9986;SDS011;5033;46.310;11.214;2023-04-01T01:18:12;6.78;;;6.18;;
9986;SDS011;5033;46.310;11.214;2023-04-01T01:20:53;6.72;;;6.13;;
9986;SDS011;5033;46.310;11.214;2023-04-01T01:23:41;7.07;;;6.47;;
9986;SDS011;5033;46.310;11.214;2023-04-01T01:26:37;5.90;;;5.40;;
9986;SDS011;5033;46.310;11.214;2023-04-01T01:29:22;5.63;;;5.13;;
9986;SDS011;5033;46.310;11.214;2023-04-01T01:35:22;5.22;;;4.82;;
9986;SDS011;5033;46.310;11.214;2023-04-01T01:37:54;5.13;;;4.72;;
9986;SDS011;5033;46.310;11.214;2023-04-01T01:40:25;5.03;;;4.65;;
9986;SDS011;5033;46.310;11.214;2023-04-01T01:42:55;5.38;;;4.88;;
9986;SDS011;5033;46.310;11.214;2023-04-01T01:45:26;5.57;;;5.05;;
9986;SDS011;5033;46.310;11.214;2023-04-01T01:47:55;6.18;;;5.68;;
9986;SDS011;5033;46.310;11.214;2023-04-01T01:50:25;6.03;;;5.53;;
9986;SDS011;5033;46.310;11.214;2023-04-01T01:52:59;5.15;;;4.75;;
9986;SDS011;5033;46.310;11.214;2023-04-01T01:55:28;5.20;;;4.80;;
9986;SDS011;5033;46.310;11.214;2023-04-01T01:57:58;4.50;;;4.20;;
9986;SDS011;5033;46.310;11.214;2023-04-01T02:00:27;4.88;;;4.47;;
9986;SDS011;5033;46.310;11.214;2023-04-01T02:02:55;5.07;;;4.68;;
9986;SDS011;5033;46.310;11.214;2023-04-01T02:05:25;5.30;;;4.90;;
9986;SDS011;5033;46.310;11.214;2023-04-01T02:07:57;4.85;;;4.45;;
9986;SDS011;5033;46.310;11.214;2023-04-01T02:10:28;5.03;;;4.70;;
9986;SDS011;5033;46.310;11.214;2023-04-01T02:13:01;5.35;;;4.95;;
9986;SDS011;5033;46.310;11.214;2023-04-01T02:15:34;5.18;;;4.78;;
9986;SDS011;5033;46.310;11.214;2023-04-01T02:18:08;5.05;;;4.68;;
9986;SDS011;5033;46.310;11.214;2023-04-01T02:20:36;5.68;;;5.25;;
9986;SDS011;5033;46.310;11.214;2023-04-01T02:23:05;5.07;;;4.68;;
9986;SDS011;5033;46.310;11.214;2023-04-01T02:25:36;4.72;;;4.40;;
9986;SDS011;5033;46.310;11.214;2023-04-01T02:28:04;5.10;;;4.60;;
9986;SDS011;5033;46.310;11.214;2023-04-01T02:30:33;5.18;;;4.78;;
9986;SDS011;5033;46.310;11.214;2023-04-01T02:33:03;5.47;;;4.97;;
9986;SDS011;5033;46.310;11.214;2023-04-01T02:35:32;5.18;;;4.78;;
9986;SDS011;5033;46.310;11.214;2023-04-01T02:38:03;5.13;;;4.72;;
9986;SDS011;5033;46.310;11.214;2023-04-01T02:40:40;4.97;;;4.57;;
9986;SDS011;5033;46.310;11.214;2023-04-01T02:43:12;4.95;;;4.55;;
9986;SDS011;5033;46.310;11.214;2023-04-01T02:45:39;5.05;;;4.70;;
9986;SDS011;5033;46.310;11.214;2023-04-01T02:48:06;5.82;;;5.43;;
9986;SDS011;5033;46.310;11.214;2023-04-01T02:50:33;6.05;;;5.45;;
9986;SDS011;5033;46.310;11.214;2023-04-01T02:53:00;4.85;;;4.45;;
9986;SDS011;5033;46.310;11.214;2023-04-01T02:55:31;5.43;;;5.00;;
9986;SDS011;5033;46.310;11.214;2023-04-01T02:57:58;5.20;;;4.80;;
9986;SDS011;5033;46.310;11.214;2023-04-01T03:00:25;5.90;;;5.40;;
9986;SDS011;5033;46.310;11.214;2023-04-01T03:02:52;5.10;;;4.80;;
9986;SDS011;5033;46.310;11.214;2023-04-01T03:05:19;5.47;;;5.07;;
9986;SDS011;5033;46.310;11.214;2023-04-01T03:07:47;4.88;;;4.50;;
9986;SDS011;5033;46.310;11.214;2023-04-01T03:10:15;4.95;;;4.55;;
9986;SDS011;5033;46.310;11.214;2023-04-01T03:12:42;5.10;;;4.70;;
9986;SDS011;5033;46.310;11.214;2023-04-01T03:15:10;5.05;;;4.60;;
9986;SDS011;5033;46.310;11.214;2023-04-01T03:17:39;4.65;;;4.35;;
9986;SDS011;5033;46.310;11.214;2023-04-01T03:20:07;5.00;;;4.60;;
9986;SDS011;5033;46.310;11.214;2023-04-01T03:22:36;4.90;;;4.50;;
9986;SDS011;5033;46.310;11.214;2023-04-01T03:25:03;4.75;;;4.35;;
9986;SDS011;5033;46.310;11.214;2023-04-01T03:27:34;4.82;;;4.53;;
9986;SDS011;5033;46.310;11.214;2023-04-01T03:30:01;5.10;;;4.70;;
9986;SDS011;5033;46.310;11.214;2023-04-01T03:32:28;4.43;;;4.13;;
9986;SDS011;5033;46.310;11.214;2023-04-01T03:34:55;4.80;;;4.50;;
9986;SDS011;5033;46.310;11.214;2023-04-01T03:37:22;4.40;;;4.10;;
9986;SDS011;5033;46.310;11.214;2023-04-01T03:39:50;4.70;;;4.32;;
9986;SDS011;5033;46.310;11.214;2023-04-01T03:42:17;4.25;;;3.95;;
9986;SDS011;5033;46.310;11.214;2023-04-01T03:44:45;4.72;;;4.32;;
9986;SDS011;5033;46.310;11.214;2023-04-01T03:47:12;4.70;;;4.40;;
9986;SDS011;5033;46.310;11.214;2023-04-01T03:49:39;4.78;;;4.38;;
9986;SDS011;5033;46.310;11.214;2023-04-01T03:52:08;4.93;;;4.53;;
9986;SDS011;5033;46.310;11.214;2023-04-01T03:54:36;5.15;;;4.75;;
9986;SDS011;5033;46.310;11.214;2023-04-01T03:57:03;5.05;;;4.65;;
9986;SDS011;5033;46.310;11.214;2023-04-01T03:59:31;4.85;;;4.45;;
9986;SDS011;5033;46.310;11.214;2023-04-01T04:02:02;5.07;;;4.68;;
9986;SDS011;5033;46.310;11.214;2023-04-01T04:04:30;4.88;;;4.47;;
9986;SDS011;5033;46.310;11.214;2023-04-01T04:06:57;5.43;;;5.03;;
9986;SDS011;5033;46.310;11.214;2023-04-01T04:09:24;5.43;;;5.03;;
9986;SDS011;5033;46.310;11.214;2023-04-01T04:11:51;4.97;;;4.57;;
9986;SDS011;5033;46.310;11.214;2023-04-01T04:14:18;4.97;;;4.57;;
9986;SDS011;5033;46.310;11.214;2023-04-01T04:16:45;5.25;;;4.85;;
9986;SDS011;5033;46.310;11.214;2023-04-01T04:19:14;5.22;;;4.82;;
9986;SDS011;5033;46.310;11.214;2023-04-01T04:21:41;4.82;;;4.43;;
9986;SDS011;5033;46.310;11.214;2023-04-01T04:24:08;5.00;;;4.68;;
9986;SDS011;5033;46.310;11.214;2023-04-01T04:26:36;4.97;;;4.63;;
9986;SDS011;5033;46.310;11.214;2023-04-01T04:29:03;5.03;;;4.63;;
9986;SDS011;5033;46.310;11.214;2023-04-01T04:31:30;5.30;;;4.90;;
9986;SDS011;5033;46.310;11.214;2023-04-01T04:33:58;4.95;;;4.55;;
9986;SDS011;5033;46.310;11.214;2023-04-01T04:36:27;4.80;;;4.50;;
9986;SDS011;5033;46.310;11.214;2023-04-01T04:38:54;5.60;;;5.10;;
9986;SDS011;5033;46.310;11.214;2023-04-01T04:41:23;4.57;;;4.28;;
9986;SDS011;5033;46.310;11.214;2023-04-01T04:43:51;5.07;;;4.70;;
9986;SDS011;5033;46.310;11.214;2023-04-01T04:46:19;5.07;;;4.68;;
9986;SDS011;5033;46.310;11.214;2023-04-01T04:48:47;4.78;;;4.38;;
9986;SDS011;5033;46.310;11.214;2023-04-01T04:51:14;5.15;;;4.75;;
9986;SDS011;5033;46.310;11.214;2023-04-01T04:53:43;4.28;;;3.97;;
9986;SDS011;5033;46.310;11.214;2023-04-01T04:56:11;4.43;;;4.13;;
9986;SDS011;5033;46.310;11.214;2023-04-01T04:58:39;4.90;;;4.60;;
9986;SDS011;5033;46.310;11.214;2023-04-01T05:01:07;4.07;;;3.78;;
9986;SDS011;5033;46.310;11.214;2023-04-01T05:03:35;4.57;;;4.28;;
9986;SDS011;5033;46.310;11.214;2023-04-01T05:06:02;4.93;;;4.60;;
9986;SDS011;5033;46.310;11.214;2023-04-01T05:08:30;4.93;;;4.63;;
9986;SDS011;5033;46.310;11.214;2023-04-01T05:10:59;5.20;;;4.80;;
9986;SDS011;5033;46.310;11.214;2023-04-01T05:13:26;5.75;;;5.35;;
9986;SDS011;5033;46.310;11.214;2023-04-01T05:15:53;5.30;;;4.90;;
9986;SDS011;5033;46.310;11.214;2023-04-01T05:18:20;5.20;;;4.80;;
9986;SDS011;5033;46.310;11.214;2023-04-01T05:20:47;4.68;;;4.38;;
9986;SDS011;5033;46.310;11.214;2023-04-01T05:23:15;4.53;;;4.22;;
9986;SDS011;5033;46.310;11.214;2023-04-01T05:25:43;4.90;;;4.47;;
9986;SDS011;5033;46.310;11.214;2023-04-01T05:28:12;4.72;;;4.40;;
9986;SDS011;5033;46.310;11.214;2023-04-01T05:30:41;4.85;;;4.50;;
9986;SDS011;5033;46.310;11.214;2023-04-01T05:33:11;5.00;;;4.60;;
9986;SDS011;5033;46.310;11.214;2023-04-01T05:35:39;4.60;;;4.30;;
9986;SDS011;5033;46.310;11.214;2023-04-01T05:38:06;5.15;;;4.75;;
9986;SDS011;5033;46.310;11.214;2023-04-01T05:40:34;5.20;;;4.80;;
9986;SDS011;5033;46.310;11.214;2023-04-01T05:43:01;5.10;;;4.70;;
9986;SDS011;5033;46.310;11.214;2023-04-01T05:45:29;5.20;;;4.80;;
9986;SDS011;5033;46.310;11.214;2023-04-01T05:47:56;5.13;;;4.72;;
9986;SDS011;5033;46.310;11.214;2023-04-01T05:50:23;4.95;;;4.63;;
9986;SDS011;5033;46.310;11.214;2023-04-01T05:52:50;4.47;;;4.18;;
9986;SDS011;5033;46.310;11.214;2023-04-01T05:55:17;4.32;;;4.03;;
9986;SDS011;5033;46.310;11.214;2023-04-01T05:57:44;4.75;;;4.45;;
9986;SDS011;5033;46.310;11.214;2023-04-01T06:00:13;4.18;;;3.88;;
9986;SDS011;5033;46.310;11.214;2023-04-01T06:02:43;4.20;;;3.90;;
9986;SDS011;5033;46.310;11.214;2023-04-01T06:05:12;4.30;;;4.00;;
9986;SDS011;5033;46.310;11.214;2023-04-01T06:07:43;5.18;;;4.78;;
9986;SDS011;5033;46.310;11.214;2023-04-01T06:10:12;4.82;;;4.20;;
9986;SDS011;5033;46.310;11.214;2023-04-01T06:12:43;4.63;;;4.32;;
9986;SDS011;5033;46.310;11.214;2023-04-01T06:15:18;4.22;;;3.92;;
9986;SDS011;5033;46.310;11.214;2023-04-01T06:20:54;4.78;;;4.40;;
9986;SDS011;5033;46.310;11.214;2023-04-01T06:23:32;4.45;;;4.15;;
9986;SDS011;5033;46.310;11.214;2023-04-01T06:26:10;4.68;;;4.20;;
9986;SDS011;5033;46.310;11.214;2023-04-01T06:28:55;4.15;;;3.85;;
9986;SDS011;5033;46.310;11.214;2023-04-01T06:32:01;4.93;;;4.07;;
9986;SDS011;5033;46.310;11.214;2023-04-01T06:35:01;4.70;;;4.40;;
9986;SDS011;5033;46.310;11.214;2023-04-01T06:40:52;4.15;;;3.85;;
9986;SDS011;5033;46.310;11.214;2023-04-01T06:43:57;4.47;;;4.05;;
9986;SDS011;5033;46.310;11.214;2023-04-01T06:46:33;4.38;;;3.97;;
9986;SDS011;5033;46.310;11.214;2023-04-01T06:49:15;4.07;;;3.78;;
9986;SDS011;5033;46.310;11.214;2023-04-01T06:51:52;4.38;;;4.03;;
9986;SDS011;5033;46.310;11.214;2023-04-01T06:54:28;4.75;;;4.40;;
9986;SDS011;5033;46.310;11.214;2023-04-01T06:57:00;5.18;;;4.78;;
9986;SDS011;5033;46.310;11.214;2023-04-01T06:59:36;4.70;;;4.30;;
9986;SDS011;5033;46.310;11.214;2023-04-01T07:02:04;4.97;;;4.57;;
9986;SDS011;5033;46.310;11.214;2023-04-01T07:04:43;4.72;;;4.32;;
9986;SDS011;5033;46.310;11.214;2023-04-01T07:07:14;5.97;;;5.30;;
9986;SDS011;5033;46.310;11.214;2023-04-01T07:09:49;5.00;;;4.60;;
9986;SDS011;5033;46.310;11.214;2023-04-01T07:12:29;11.63;;;4.57;;
9986;SDS011;5033;46.310;11.214;2023-04-01T07:15:05;6.20;;;4.70;;
9986;SDS011;5033;46.310;11.214;2023-04-01T07:17:41;5.35;;;4.93;;
9986;SDS011;5033;46.310;11.214;2023-04-01T07:20:11;5.07;;;4.68;;
9986;SDS011;5033;46.310;11.214;2023-04-01T07:22:46;5.40;;;4.90;;
9986;SDS011;5033;46.310;11.214;2023-04-01T07:25:18;5.03;;;4.57;;
9986;SDS011;5033;46.310;11.214;2023-04-01T07:27:47;5.70;;;5.20;;
9986;SDS011;5033;46.310;11.214;2023-04-01T07:30:15;5.32;;;4.88;;
9986;SDS011;5033;46.310;11.214;2023-04-01T07:32:44;4.82;;;4.47;;
9986;SDS011;5033;46.310;11.214;2023-04-01T07:35:20;4.78;;;4.38;;
9986;SDS011;5033;46.310;11.214;2023-04-01T07:40:41;4.72;;;4.10;;
9986;SDS011;5033;46.310;11.214;2023-04-01T07:43:17;4.60;;;4.30;;
9986;SDS011;5033;46.310;11.214;2023-04-01T07:46:01;4.60;;;4.28;;
9986;SDS011;5033;46.310;11.214;2023-04-01T07:48:38;4.70;;;4.30;;
9986;SDS011;5033;46.310;11.214;2023-04-01T07:51:11;4.65;;;4.35;;
9986;SDS011;5033;46.310;11.214;2023-04-01T07:53:44;4.05;;;3.75;;
9986;SDS011;5033;46.310;11.214;2023-04-01T07:56:18;4.82;;;4.53;;
9986;SDS011;5033;46.310;11.214;2023-04-01T07:58:53;4.80;;;4.50;;
9986;SDS011;5033;46.310;11.214;2023-04-01T08:01:30;4.70;;;4.30;;
9986;SDS011;5033;46.310;11.214;2023-04-01T08:04:08;5.35;;;4.95;;
9986;SDS011;5033;46.310;11.214;2023-04-01T08:06:45;4.63;;;4.32;;
9986;SDS011;5033;46.310;11.214;2023-04-01T08:09:19;4.05;;;3.75;;
9986;SDS011;5033;46.310;11.214;2023-04-01T08:12:00;4.70;;;4.30;;
9986;SDS011;5033;46.310;11.214;2023-04-01T08:14:38;4.63;;;4.32;;
9986;SDS011;5033;46.310;11.214;2023-04-01T08:17:15;4.00;;;3.70;;
9986;SDS011;5033;46.310;11.214;2023-04-01T08:19:54;4.68;;;4.30;;
9986;SDS011;5033;46.310;11.214;2023-04-01T08:22:30;4.75;;;4.35;;
9986;SDS011;5033;46.310;11.214;2023-04-01T08:25:02;6.65;;;4.70;;
9986;SDS011;5033;46.310;11.214;2023-04-01T08:27:35;4.95;;;4.55;;
9986;SDS011;5033;46.310;11.214;2023-04-01T08:30:06;5.32;;;4.93;;
9986;SDS011;5033;46.310;11.214;2023-04-01T08:32:44;4.70;;;4.30;;
9986;SDS011;5033;46.310;11.214;2023-04-01T08:35:18;5.18;;;4.45;;
9986;SDS011;5033;46.310;11.214;2023-04-01T08:37:52;5.03;;;4.55;;
9986;SDS011;5033;46.310;11.214;2023-04-01T08:40:35;5.80;;;5.30;;
9986;SDS011;5033;46.310;11.214;2023-04-01T08:43:17;5.45;;;4.95;;
9986;SDS011;5033;46.310;11.214;2023-04-01T08:46:02;4.85;;;4.43;;
9986;SDS011;5033;46.310;11.214;2023-04-01T08:48:47;4.95;;;4.50;;
9986;SDS011;5033;46.310;11.214;2023-04-01T08:54:34;4.45;;;4.05;;
9986;SDS011;5033;46.310;11.214;2023-04-01T08:57:12;4.75;;;4.35;;
9986;SDS011;5033;46.310;11.214;2023-04-01T08:59:59;4.80;;;4.40;;
9986;SDS011;5033;46.310;11.214;2023-04-01T09:02:51;3.70;;;3.40;;
9986;SDS011;5033;46.310;11.214;2023-04-01T09:05:45;3.88;;;3.58;;
9986;SDS011;5033;46.310;11.214;2023-04-01T09:08:35;4.30;;;4.00;;
9986;SDS011;5033;46.310;11.214;2023-04-01T09:11:17;4.50;;;4.10;;
9986;SDS011;5033;46.310;11.214;2023-04-01T09:13:59;4.45;;;4.15;;
9986;SDS011;5033;46.310;11.214;2023-04-01T09:19:45;4.25;;;3.95;;
9986;SDS011;5033;46.310;11.214;2023-04-01T09:22:32;3.45;;;3.25;;
9986;SDS011;5033;46.310;11.214;2023-04-01T09:25:27;3.63;;;3.10;;
9986;SDS011;5033;46.310;11.214;2023-04-01T09:28:02;4.35;;;3.58;;
9986;SDS011;5033;46.310;11.214;2023-04-01T09:36:35;3.67;;;3.38;;
9986;SDS011;5033;46.310;11.214;2023-04-01T09:39:13;3.67;;;3.38;;
9986;SDS011;5033;46.310;11.214;2023-04-01T09:45:01;3.45;;;3.15;;
9986;SDS011;5033;46.310;11.214;2023-04-01T09:47:39;3.80;;;3.50;;
9986;SDS011;5033;46.310;11.214;2023-04-01T09:50:20;4.03;;;3.72;;
9986;SDS011;5033;46.310;11.214;2023-04-01T09:53:02;3.97;;;3.67;;
9986;SDS011;5033;46.310;11.214;2023-04-01T10:13:29;2.20;;;2.05;;
9986;SDS011;5033;46.310;11.214;2023-04-01T10:16:40;2.97;;;2.78;;
9986;SDS011;5033;46.310;11.214;2023-04-01T10:19:50;2.60;;;2.40;;
9986;SDS011;5033;46.310;11.214;2023-04-01T10:22:36;2.90;;;2.70;;
9986;SDS011;5033;46.310;11.214;2023-04-01T10:41:13;3.60;;;3.30;;
9986;SDS011;5033;46.310;11.214;2023-04-01T10:44:02;3.67;;;3.38;;
9986;SDS011;5033;46.310;11.214;2023-04-01T10:46:59;3.10;;;2.80;;
9986;SDS011;5033;46.310;11.214;2023-04-01T10:50:11;3.53;;;2.67;;
9986;SDS011;5033;46.310;11.214;2023-04-01T10:56:07;3.42;;;3.15;;
9986;SDS011;5033;46.310;11.214;2023-04-01T10:59:11;3.72;;;3.33;;
9986;SDS011;5033;46.310;11.214;2023-04-01T11:05:22;2.75;;;2.55;;
9986;SDS011;5033;46.310;11.214;2023-04-01T11:11:23;2.10;;;2.00;;
9986;SDS011;5033;46.310;11.214;2023-04-01T11:17:21;2.97;;;2.70;;
9986;SDS011;5033;46.310;11.214;2023-04-01T11:20:23;2.83;;;2.63;;
9986;SDS011;5033;46.310;11.214;2023-04-01T11:23:13;3.72;;;3.33;;
9986;SDS011;5033;46.310;11.214;2023-04-01T11:26:04;3.10;;;2.90;;
9986;SDS011;5033;46.310;11.214;2023-04-01T11:31:33;2.67;;;2.47;;
9986;SDS011;5033;46.310;11.214;2023-04-01T11:34:10;2.50;;;2.30;;
9986;SDS011;5033;46.310;11.214;2023-04-01T11:36:51;2.65;;;2.45;;
9986;SDS011;5033;46.310;11.214;2023-04-01T11:39:29;2.10;;;2.00;;
9986;SDS011;5033;46.310;11.214;2023-04-01T11:42:03;1.92;;;1.83;;
9986;SDS011;5033;46.310;11.214;2023-04-01T11:44:38;2.10;;;1.90;;
9986;SDS011;5033;46.310;11.214;2023-04-01T11:47:19;2.05;;;1.95;;
9986;SDS011;5033;46.310;11.214;2023-04-01T11:49:59;2.03;;;1.92;;
9986;SDS011;5033;46.310;11.214;2023-04-01T11:55:32;2.00;;;1.90;;
9986;SDS011;5033;46.310;11.214;2023-04-01T11:58:19;2.28;;;2.08;;
9986;SDS011;5033;46.310;11.214;2023-04-01T12:00:59;2.30;;;2.10;;
9986;SDS011;5033;46.310;11.214;2023-04-01T12:03:37;2.10;;;1.90;;
9986;SDS011;5033;46.310;11.214;2023-04-01T12:06:37;1.70;;;1.60;;
9986;SDS011;5033;46.310;11.214;2023-04-01T12:09:17;1.70;;;1.60;;
9986;SDS011;5033;46.310;11.214;2023-04-01T12:11:52;1.67;;;1.58;;
9986;SDS011;5033;46.310;11.214;2023-04-01T12:14:39;1.60;;;1.50;;
9986;SDS011;5033;46.310;11.214;2023-04-01T12:17:14;1.20;;;1.20;;
9986;SDS011;5033;46.310;11.214;2023-04-01T12:19:53;1.30;;;1.17;;
9986;SDS011;5033;46.310;11.214;2023-04-01T12:22:30;1.42;;;1.33;;
9986;SDS011;5033;46.310;11.214;2023-04-01T12:25:24;1.40;;;1.30;;
9986;SDS011;5033;46.310;11.214;2023-04-01T12:28:06;1.98;;;1.75;;
9986;SDS011;5033;46.310;11.214;2023-04-01T12:30:47;1.20;;;1.20;;
9986;SDS011;5033;46.310;11.214;2023-04-01T12:33:24;1.45;;;1.35;;
9986;SDS011;5033;46.310;11.214;2023-04-01T12:36:26;1.40;;;1.30;;
9986;SDS011;5033;46.310;11.214;2023-04-01T12:39:17;1.20;;;1.20;;
9986;SDS011;5033;46.310;11.214;2023-04-01T12:41:58;1.30;;;1.20;;
9986;SDS011;5033;46.310;11.214;2023-04-01T12:44:39;1.20;;;1.20;;
9986;SDS011;5033;46.310;11.214;2023-04-01T12:47:39;1.63;;;1.52;;
9986;SDS011;5033;46.310;11.214;2023-04-01T12:50:34;1.20;;;1.10;;
9986;SDS011;5033;46.310;11.214;2023-04-01T12:53:16;1.63;;;1.40;;
9986;SDS011;5033;46.310;11.214;2023-04-01T12:56:05;1.50;;;1.40;;
9986;SDS011;5033;46.310;11.214;2023-04-01T12:58:45;2.40;;;1.20;;
9986;SDS011;5033;46.310;11.214;2023-04-01T13:07:45;1.10;;;1.10;;
9986;SDS011;5033;46.310;11.214;2023-04-01T13:10:38;1.15;;;1.10;;
9986;SDS011;5033;46.310;11.214;2023-04-01T13:13:28;0.95;;;0.95;;
9986;SDS011;5033;46.310;11.214;2023-04-01T13:16:15;1.13;;;1.02;;
9986;SDS011;5033;46.310;11.214;2023-04-01T13:18:51;1.00;;;1.00;;
9986;SDS011;5033;46.310;11.214;2023-04-01T13:21:25;1.13;;;1.13;;
9986;SDS011;5033;46.310;11.214;2023-04-01T13:24:06;1.00;;;1.00;;
9986;SDS011;5033;46.310;11.214;2023-04-01T13:26:47;1.30;;;1.20;;
9986;SDS011;5033;46.310;11.214;2023-04-01T13:29:23;1.00;;;1.00;;
9986;SDS011;5033;46.310;11.214;2023-04-01T13:32:02;1.05;;;1.05;;
9986;SDS011;5033;46.310;11.214;2023-04-01T13:34:44;0.90;;;0.90;;
9986;SDS011;5033;46.310;11.214;2023-04-01T13:37:22;1.00;;;1.00;;
9986;SDS011;5033;46.310;11.214;2023-04-01T13:40:02;1.15;;;1.15;;
9986;SDS011;5033;46.310;11.214;2023-04-01T13:42:51;1.40;;;1.30;;
9986;SDS011;5033;46.310;11.214;2023-04-01T13:45:23;1.10;;;1.10;;
9986;SDS011;5033;46.310;11.214;2023-04-01T13:48:11;1.20;;;1.10;;
9986;SDS011;5033;46.310;11.214;2023-04-01T13:51:04;1.00;;;1.00;;
9986;SDS011;5033;46.310;11.214;2023-04-01T13:53:58;0.95;;;0.90;;
9986;SDS011;5033;46.310;11.214;2023-04-01T13:56:41;1.23;;;1.13;;
9986;SDS011;5033;46.310;11.214;2023-04-01T13:59:24;1.10;;;1.10;;
9986;SDS011;5033;46.310;11.214;2023-04-01T14:02:21;1.50;;;0.98;;
9986;SDS011;5033;46.310;11.214;2023-04-01T14:05:12;1.60;;;0.90;;
9986;SDS011;5033;46.310;11.214;2023-04-01T14:08:00;1.45;;;0.93;;
9986;SDS011;5033;46.310;11.214;2023-04-01T14:10:36;0.90;;;0.90;;
9986;SDS011;5033;46.310;11.214;2023-04-01T14:13:12;0.88;;;0.88;;
9986;SDS011;5033;46.310;11.214;2023-04-01T14:15:49;0.70;;;0.70;;
9986;SDS011;5033;46.310;11.214;2023-04-01T14:21:28;0.82;;;0.82;;
9986;SDS011;5033;46.310;11.214;2023-04-01T14:24:13;0.80;;;0.80;;
9986;SDS011;5033;46.310;11.214;2023-04-01T14:29:58;0.80;;;0.80;;
9986;SDS011;5033;46.310;11.214;2023-04-01T14:32:42;0.77;;;0.77;;
9986;SDS011;5033;46.310;11.214;2023-04-01T14:35:23;0.73;;;0.70;;
9986;SDS011;5033;46.310;11.214;2023-04-01T14:38:01;0.63;;;0.63;;
9986;SDS011;5033;46.310;11.214;2023-04-01T14:40:45;0.88;;;0.88;;
9986;SDS011;5033;46.310;11.214;2023-04-01T14:43:36;0.75;;;0.75;;
9986;SDS011;5033;46.310;11.214;2023-04-01T14:46:23;0.95;;;0.95;;
9986;SDS011;5033;46.310;11.214;2023-04-01T14:49:14;0.85;;;0.85;;
9986;SDS011;5033;46.310;11.214;2023-04-01T14:51:44;0.50;;;0.50;;
9986;SDS011;5033;46.310;11.214;2023-04-01T14:54:14;0.70;;;0.70;;
9986;SDS011;5033;46.310;11.214;2023-04-01T14:56:48;0.80;;;0.80;;
9986;SDS011;5033;46.310;11.214;2023-04-01T14:59:25;0.80;;;0.80;;
9986;SDS011;5033;46.310;11.214;2023-04-01T15:01:56;0.80;;;0.80;;
9986;SDS011;5033;46.310;11.214;2023-04-01T15:04:37;1.98;;;1.05;;
9986;SDS011;5033;46.310;11.214;2023-04-01T15:07:15;1.15;;;1.00;;
9986;SDS011;5033;46.310;11.214;2023-04-01T15:09:59;2.30;;;1.20;;
9986;SDS011;5033;46.310;11.214;2023-04-01T15:12:34;4.80;;;1.27;;
9986;SDS011;5033;46.310;11.214;2023-04-01T15:15:13;0.90;;;0.90;;
9986;SDS011;5033;46.310;11.214;2023-04-01T15:17:55;1.02;;;1.00;;
9986;SDS011;5033;46.310;11.214;2023-04-01T15:20:40;1.10;;;1.00;;
9986;SDS011;5033;46.310;11.214;2023-04-01T15:23:36;0.80;;;0.80;;
9986;SDS011;5033;46.310;11.214;2023-04-01T15:26:28;1.10;;;1.10;;
9986;SDS011;5033;46.310;11.214;2023-04-01T15:29:30;0.95;;;0.95;;
9986;SDS011;5033;46.310;11.214;2023-04-01T15:32:16;1.30;;;1.20;;
9986;SDS011;5033;46.310;11.214;2023-04-01T15:34:49;1.00;;;1.00;;
9986;SDS011;5033;46.310;11.214;2023-04-01T15:37:26;1.10;;;1.02;;
9986;SDS011;5033;46.310;11.214;2023-04-01T15:40:02;0.80;;;0.80;;
9986;SDS011;5033;46.310;11.214;2023-04-01T15:42:46;0.88;;;0.88;;
9986;SDS011;5033;46.310;11.214;2023-04-01T15:45:30;0.90;;;0.90;;
9986;SDS011;5033;46.310;11.214;2023-04-01T15:48:06;1.05;;;1.00;;
9986;SDS011;5033;46.310;11.214;2023-04-01T15:50:51;1.30;;;1.20;;
9986;SDS011;5033;46.310;11.214;2023-04-01T15:53:31;1.00;;;1.00;;
9986;SDS011;5033;46.310;11.214;2023-04-01T15:56:24;0.93;;;0.90;;
9986;SDS011;5033;46.310;11.214;2023-04-01T15:59:01;0.90;;;0.90;;
9986;SDS011;5033;46.310;11.214;2023-04-01T16:01:40;0.73;;;0.73;;
9986;SDS011;5033;46.310;11.214;2023-04-01T16:04:27;0.65;;;0.65;;
9986;SDS011;5033;46.310;11.214;2023-04-01T16:07:10;0.90;;;0.90;;
9986;SDS011;5033;46.310;11.214;2023-04-01T16:09:59;1.75;;;0.80;;
9986;SDS011;5033;46.310;11.214;2023-04-01T16:12:39;0.80;;;0.80;;
9986;SDS011;5033;46.310;11.214;2023-04-01T16:15:19;1.55;;;1.10;;
9986;SDS011;5033;46.310;11.214;2023-04-01T16:17:57;0.80;;;0.80;;
9986;SDS011;5033;46.310;11.214;2023-04-01T16:20:42;1.20;;;1.20;;
9986;SDS011;5033;46.310;11.214;2023-04-01T16:23:13;1.08;;;1.08;;
9986;SDS011;5033;46.310;11.214;2023-04-01T16:25:49;2.05;;;1.30;;
9986;SDS011;5033;46.310;11.214;2023-04-01T16:28:24;1.45;;;1.33;;
9986;SDS011;5033;46.310;11.214;2023-04-01T16:30:58;1.17;;;1.17;;
9986;SDS011;5033;46.310;11.214;2023-04-01T16:33:33;1.40;;;1.30;;
9986;SDS011;5033;46.310;11.214;2023-04-01T16:36:08;0.90;;;0.90;;
9986;SDS011;5033;46.310;11.214;2023-04-01T16:38:41;0.90;;;0.90;;
9986;SDS011;5033;46.310;11.214;2023-04-01T16:41:16;1.23;;;1.13;;
9986;SDS011;5033;46.310;11.214;2023-04-01T16:43:45;1.00;;;1.00;;
9986;SDS011;5033;46.310;11.214;2023-04-01T16:46:33;0.80;;;0.80;;
9986;SDS011;5033;46.310;11.214;2023-04-01T16:49:04;1.10;;;1.10;;
9986;SDS011;5033;46.310;11.214;2023-04-01T16:51:52;2.28;;;0.73;;
9986;SDS011;5033;46.310;11.214;2023-04-01T16:54:26;0.90;;;0.90;;
9986;SDS011;5033;46.310;11.214;2023-04-01T16:57:02;1.02;;;1.02;;
9986;SDS011;5033;46.310;11.214;2023-04-01T16:59:44;0.90;;;0.90;;
9986;SDS011;5033;46.310;11.214;2023-04-01T17:02:15;0.90;;;0.90;;
9986;SDS011;5033;46.310;11.214;2023-04-01T17:04:45;0.88;;;0.88;;
9986;SDS011;5033;46.310;11.214;2023-04-01T17:07:21;1.00;;;1.00;;
9986;SDS011;5033;46.310;11.214;2023-04-01T17:10:00;1.10;;;1.10;;
9986;SDS011;5033;46.310;11.214;2023-04-01T17:12:42;1.00;;;1.00;;
9986;SDS011;5033;46.310;11.214;2023-04-01T17:15:17;1.25;;;1.25;;
9986;SDS011;5033;46.310;11.214;2023-04-01T17:17:58;1.70;;;1.60;;
9986;SDS011;5033;46.310;11.214;2023-04-01T17:20:35;1.55;;;1.45;;
9986;SDS011;5033;46.310;11.214;2023-04-01T17:23:11;1.20;;;1.20;;
9986;SDS011;5033;46.310;11.214;2023-04-01T17:25:49;1.10;;;1.10;;
9986;SDS011;5033;46.310;11.214;2023-04-01T17:28:26;0.80;;;0.80;;
9986;SDS011;5033;46.310;11.214;2023-04-01T17:31:02;0.98;;;0.98;;